createdAt,value
2023-03-05T00:12:08.760Z,97116.69
2023-03-05T01:24:15.507Z,97060.06
2023-03-05T02:16:40.852Z,97009.53
2023-03-05T02:21:48.841Z,96994.81
2023-03-05T02:31:50.863Z,96984.13
2023-03-05T02:36:42.661Z,96980.25
2023-03-05T02:41:34.380Z,96978.13
2023-03-05T02:46:26.286Z,96970.50
2023-03-05T02:56:24.112Z,96956.91
2023-03-05T03:01:15.942Z,96947.88
2023-03-05T03:06:07.868Z,96943.31
2023-03-05T03:11:09.209Z,96943.97
2023-03-05T03:16:11.009Z,96934.22
2023-03-05T03:21:03.947Z,96927.91
2023-03-05T03:25:55.714Z,96927.25
2023-03-05T03:30:47.586Z,96919.31
2023-03-05T03:35:39.314Z,96923.22
2023-03-05T03:40:31.639Z,96921.16
2023-03-05T03:45:23.378Z,96913.19
2023-03-05T03:50:15.094Z,96915.47
2023-03-05T03:55:07.282Z,96918.75
2023-03-05T04:00:00.391Z,96901.59
2023-03-05T04:04:53.073Z,96902.03
2023-03-05T04:09:45.015Z,96902.03
2023-03-05T04:14:37.325Z,96898.03
2023-03-05T04:19:31.014Z,96903.25
2023-03-05T04:39:41.065Z,96894.78
2023-03-05T05:00:36.917Z,96861.59
2023-03-05T05:05:32.781Z,96862.13
2023-03-05T05:10:29.502Z,96854.78
2023-03-05T05:20:31.500Z,96857.03
2023-03-05T05:25:30.702Z,96863.06
2023-03-05T05:30:23.228Z,96855.50
2023-03-05T05:35:15.102Z,96852.19
2023-03-05T05:40:09.471Z,96856.69
2023-03-05T05:45:03.127Z,96858.41
2023-03-05T05:55:03.871Z,96846.63
2023-03-05T05:59:59.800Z,96842.00
2023-03-05T06:10:03.853Z,96846.22
2023-03-05T06:25:13.940Z,96854.38
2023-03-05T06:30:09.646Z,96848.56
2023-03-05T06:40:13.322Z,96825.47
2023-03-05T06:50:12.566Z,96838.63
2023-03-05T06:55:06.760Z,96843.22
2023-03-05T07:05:08.621Z,96846.94
2023-03-05T07:10:07.790Z,96838.66
2023-03-05T07:15:02.040Z,96839.28
2023-03-05T07:19:54.006Z,96842.88
2023-03-05T07:24:46.448Z,96837.16
2023-03-05T07:29:39.093Z,96834.56
2023-03-05T07:49:56.491Z,96818.75
2023-03-05T07:59:55.309Z,96816.69
2023-03-05T08:14:58.834Z,96801.63
2023-03-05T08:19:50.784Z,96787.44
2023-03-05T08:24:43.452Z,96784.59
2023-03-05T08:29:36.191Z,96784.91
2023-03-05T08:39:35.876Z,96787.72
2023-03-05T08:44:29.491Z,96792.97
2023-03-05T08:49:28.698Z,96791.41
2023-03-05T08:54:20.751Z,96782.09
2023-03-05T08:59:14.586Z,96780.13
2023-03-05T09:04:13.451Z,96768.16
2023-03-05T09:09:06.757Z,96762.41
2023-03-05T09:13:59.685Z,96758.63
2023-03-05T09:18:52.221Z,96755.44
2023-03-05T09:23:50.605Z,96758.44
2023-03-05T09:33:50.950Z,96742.63
2023-03-05T09:38:44.969Z,96736.41
2023-03-05T09:49:21.437Z,96735.00
2023-03-05T09:54:26.750Z,96730.78
2023-03-05T10:05:06.180Z,96717.75
2023-03-05T10:10:11.179Z,96708.28
2023-03-05T10:15:03.745Z,96715.47
2023-03-05T10:20:34.242Z,96706.38
2023-03-05T10:25:52.673Z,96697.19
2023-03-05T10:36:46.145Z,96682.00
2023-03-05T10:42:35.623Z,96687.56
2023-03-05T10:47:45.956Z,96679.38
2023-03-05T10:52:47.820Z,96665.66
2023-03-05T10:57:41.620Z,96665.09
2023-03-05T11:13:31.209Z,96637.41
2023-03-05T11:18:24.716Z,96629.28
2023-03-05T11:23:27.296Z,96618.34
2023-03-05T11:28:32.891Z,96602.94
2023-03-05T11:33:26.584Z,96598.88
2023-03-05T11:38:26.080Z,96589.09
2023-03-05T11:48:44.953Z,96583.66
2023-03-05T11:53:40.030Z,96567.97
2023-03-05T11:58:47.212Z,96566.31
2023-03-05T12:03:41.505Z,96548.88
2023-03-05T12:08:45.214Z,96553.03
2023-03-05T12:13:49.236Z,96543.84
2023-03-05T12:29:54.981Z,96523.56
2023-03-05T12:35:01.605Z,96517.22
2023-03-05T12:40:12.090Z,96504.94
2023-03-05T12:45:10.266Z,96497.31
2023-03-05T12:55:20.725Z,96479.03
2023-03-05T13:11:05.627Z,96456.38
2023-03-05T13:26:22.050Z,96455.19
2023-03-05T13:31:22.372Z,96442.59
2023-03-05T13:36:27.440Z,96437.84
2023-03-05T13:41:23.036Z,96448.28
2023-03-05T13:46:36.646Z,96441.88
2023-03-05T13:51:51.780Z,96434.13
2023-03-05T13:57:00.583Z,96433.38
2023-03-05T14:07:09.598Z,96417.72
2023-03-05T14:12:34.260Z,96422.91
2023-03-05T14:17:43.728Z,96412.66
2023-03-05T14:22:41.465Z,96403.44
2023-03-05T14:27:38.367Z,96408.16
2023-03-05T14:32:34.986Z,96393.50
2023-03-05T14:48:10.136Z,96367.19
2023-03-05T14:53:20.066Z,96363.44
2023-03-05T14:58:18.579Z,96366.06
2023-03-05T15:03:23.908Z,96358.63
2023-03-05T15:08:22.334Z,96353.59
2023-03-05T15:28:44.366Z,96346.41
2023-03-05T15:33:38.258Z,96342.25
2023-03-05T15:43:39.155Z,96322.84
2023-03-05T15:53:38.554Z,96304.34
2023-03-05T15:58:32.220Z,96298.03
2023-03-05T16:08:31.703Z,96289.44
2023-03-05T16:18:33.594Z,96283.31
2023-03-05T16:23:25.938Z,96275.50
2023-03-05T16:28:20.673Z,96280.88
2023-03-05T16:33:14.271Z,96283.50
2023-03-05T16:38:08.436Z,96273.00
2023-03-05T16:43:06.496Z,96264.25
2023-03-05T16:53:04.960Z,96257.59
2023-03-05T16:57:57.373Z,96262.97
2023-03-05T17:02:55.194Z,96258.59
2023-03-05T17:07:51.130Z,96266.03
2023-03-05T17:12:44.489Z,96267.38
2023-03-05T17:17:40.140Z,96270.09
2023-03-05T17:22:32.331Z,96272.50
2023-03-05T17:32:32.173Z,96274.94
2023-03-05T17:37:28.371Z,96265.13
2023-03-05T17:42:21.308Z,96267.53
2023-03-05T17:52:21.542Z,96271.75
2023-03-05T17:57:15.192Z,96274.13
2023-03-05T18:12:21.233Z,96257.56
2023-03-05T18:17:14.883Z,96265.38
2023-03-05T18:22:07.591Z,96259.97
2023-03-05T18:27:06.900Z,96255.38
2023-03-05T18:31:59.755Z,96259.16
2023-03-05T18:36:52.679Z,96253.59
2023-03-05T18:41:47.293Z,96247.22
2023-03-05T18:46:42.318Z,96242.66
2023-03-05T18:56:53.615Z,96229.09
2023-03-05T19:01:46.118Z,96234.69
2023-03-05T19:06:39.693Z,96229.47
2023-03-05T19:11:32.379Z,96225.06
2023-03-05T19:27:02.134Z,96223.50
2023-03-05T19:32:02.791Z,96215.53
2023-03-05T19:36:55.188Z,96220.69
2023-03-05T19:41:51.274Z,96216.84
2023-03-05T20:02:02.958Z,96205.69
2023-03-05T20:17:10.949Z,96207.22
2023-03-05T20:22:08.656Z,96201.50
2023-03-05T20:27:01.938Z,96199.13
2023-03-05T20:31:56.330Z,96190.97
2023-03-05T20:42:01.024Z,96194.56
2023-03-05T20:47:47.536Z,96192.94
2023-03-05T20:52:43.764Z,96181.13
2023-03-05T20:57:36.849Z,96182.13
2023-03-05T21:02:30.227Z,96174.75
2023-03-05T21:07:30.190Z,96174.97
2023-03-05T21:17:28.726Z,96167.31
2023-03-05T21:22:20.791Z,96168.56
2023-03-05T21:27:12.681Z,96167.19
2023-03-05T21:32:06.933Z,96164.38
2023-03-05T21:36:59.318Z,96153.81
2023-03-05T21:41:52.188Z,96148.03
2023-03-05T21:46:45.125Z,96145.19
2023-03-05T22:07:38.120Z,96132.09
2023-03-05T22:13:05.341Z,96136.28
2023-03-05T22:17:57.473Z,96123.88
2023-03-05T22:22:50.705Z,96137.69
2023-03-05T22:27:44.863Z,96133.31
2023-03-05T22:32:37.668Z,96124.13
2023-03-05T22:37:30.915Z,96124.69
2023-03-05T22:47:31.998Z,96111.13
2023-03-05T22:52:24.195Z,96106.34
2023-03-05T22:57:17.758Z,96105.13
2023-03-05T23:02:10.536Z,96100.13
2023-03-05T23:07:06.129Z,96095.97
2023-03-05T23:11:58.058Z,96090.16
2023-03-05T23:16:50.585Z,96086.56
2023-03-05T23:21:42.777Z,96083.00
2023-03-05T23:31:40.375Z,96067.63
2023-03-05T23:36:33.909Z,96073.03
2023-03-05T23:41:25.877Z,96067.06
2023-03-05T23:46:18.520Z,96067.63
2023-03-05T23:51:11.560Z,96059.84
2023-03-05T23:56:10.159Z,96069.25
